createdAt,value
2022-10-31T00:04:59.500Z,88.73
2022-10-31T00:12:01.060Z,89.17
2022-10-31T00:19:03.942Z,91.11
2022-10-31T00:26:06.188Z,91.33
2022-10-31T00:33:07.759Z,90.54
2022-10-31T00:40:10.097Z,90.15
2022-10-31T00:47:11.652Z,90.15
2022-10-31T00:54:13.609Z,90.09
2022-10-31T01:01:15.304Z,90.68
2022-10-31T01:08:17.018Z,91.42
2022-10-31T01:15:21.235Z,91.17
2022-10-31T01:22:22.812Z,90.80
2022-10-31T01:29:25.761Z,90.47
2022-10-31T01:36:31.837Z,90.11
2022-10-31T01:44:02.193Z,90.44
2022-10-31T01:51:05.816Z,90.41
2022-10-31T01:58:13.006Z,90.12
2022-10-31T02:05:17.391Z,89.66
2022-10-31T02:12:18.978Z,89.63
2022-10-31T02:19:50.878Z,90.11
2022-10-31T02:26:54.077Z,90.19
2022-10-31T02:33:59.010Z,90.15
2022-10-31T02:41:20.818Z,90.61
2022-10-31T02:48:29.939Z,91.05
2022-10-31T02:55:31.396Z,91.27
2022-10-31T03:02:40.936Z,91.63
2022-10-31T03:09:56.367Z,91.61
2022-10-31T03:16:58.014Z,91.70
2022-10-31T03:23:59.699Z,91.79
2022-10-31T03:31:03.503Z,92.31
2022-10-31T03:38:08.269Z,92.04
2022-10-31T03:45:12.271Z,92.23
2022-10-31T03:52:33.286Z,92.66
2022-10-31T03:59:44.177Z,93.90
2022-10-31T04:06:45.950Z,94.71
2022-10-31T04:13:47.526Z,92.93
2022-10-31T04:21:06.405Z,94.74
2022-10-31T04:28:08.020Z,94.84
2022-10-31T04:35:09.796Z,94.92
2022-10-31T04:42:12.485Z,96.04
2022-10-31T04:49:14.452Z,95.89
2022-10-31T04:56:16.276Z,96.25
2022-10-31T05:03:21.499Z,96.61
2022-10-31T05:10:24.693Z,97.71
2022-10-31T05:17:27.090Z,97.78
2022-10-31T05:24:51.871Z,97.83
2022-10-31T05:31:53.888Z,98.41
2022-10-31T05:39:15.469Z,98.43
2022-10-31T05:46:21.225Z,98.29
2022-10-31T05:53:48.803Z,97.92
2022-10-31T06:00:51.648Z,97.90
2022-10-31T06:07:53.871Z,97.64
2022-10-31T06:14:55.524Z,98.28
2022-10-31T06:21:57.262Z,98.51
2022-10-31T06:29:03.023Z,98.32
2022-10-31T06:43:32.535Z,98.46
2022-10-31T06:51:06.516Z,96.58
2022-10-31T06:58:10.240Z,96.70
2022-10-31T07:05:14.151Z,98.36
2022-10-31T07:12:16.670Z,98.86
2022-10-31T07:19:26.635Z,95.60
2022-10-31T07:26:29.297Z,95.68
2022-10-31T07:33:31.093Z,96.77
2022-10-31T07:40:52.629Z,96.48
2022-10-31T07:47:54.630Z,95.78
2022-10-31T07:55:16.491Z,94.13
2022-10-31T08:02:23.129Z,92.35
2022-10-31T08:09:56.775Z,91.93
2022-10-31T08:17:02.005Z,91.03
2022-10-31T08:24:12.484Z,90.33
2022-10-31T08:31:15.825Z,87.91
2022-10-31T08:38:37.692Z,87.74
2022-10-31T08:45:40.480Z,87.49
2022-10-31T08:53:04.062Z,86.97
2022-10-31T09:00:08.578Z,84.82
2022-10-31T09:07:27.573Z,82.55
2022-10-31T09:14:29.698Z,81.61
2022-10-31T09:21:57.925Z,80.90
2022-10-31T09:28:59.493Z,80.52
2022-10-31T09:36:01.178Z,79.43
2022-10-31T09:43:21.485Z,79.48
2022-10-31T09:50:27.113Z,80.22
2022-10-31T09:57:31.008Z,79.74
2022-10-31T10:04:41.592Z,79.87
2022-10-31T10:12:10.689Z,79.14
2022-10-31T10:19:50.607Z,77.20
2022-10-31T10:26:59.475Z,76.51
2022-10-31T10:34:12.787Z,77.03
2022-10-31T10:41:17.541Z,77.05
2022-10-31T10:48:34.104Z,76.42
2022-10-31T10:55:46.417Z,76.09
2022-10-31T11:02:49.201Z,75.73
2022-10-31T11:09:51.138Z,74.98
2022-10-31T11:17:08.423Z,74.37
2022-10-31T11:24:10.294Z,74.72
2022-10-31T11:31:14.164Z,74.41
2022-10-31T11:38:20.402Z,74.31
2022-10-31T11:45:24.881Z,74.54
2022-10-31T11:52:27.977Z,73.46
2022-10-31T11:59:31.212Z,74.10
2022-10-31T12:06:37.615Z,74.10
2022-10-31T12:13:52.641Z,73.88
2022-10-31T12:21:26.541Z,73.82
2022-10-31T12:28:54.110Z,73.59
2022-10-31T12:36:15.424Z,73.39
2022-10-31T12:43:27.944Z,72.94
2022-10-31T12:51:07.034Z,73.72
2022-10-31T12:58:11.939Z,73.77
2022-10-31T13:05:34.218Z,73.56
2022-10-31T13:12:37.486Z,73.28
2022-10-31T13:19:41.492Z,73.31
2022-10-31T13:26:51.269Z,73.24
2022-10-31T13:33:55.580Z,73.08
2022-10-31T13:41:01.309Z,73.07
2022-10-31T13:48:33.800Z,73.32
2022-10-31T13:55:39.902Z,73.40
2022-10-31T14:02:46.588Z,73.28
2022-10-31T14:09:56.664Z,73.21
2022-10-31T14:16:58.309Z,73.77
2022-10-31T14:23:59.895Z,73.85
2022-10-31T14:31:01.511Z,74.21
2022-10-31T14:38:15.544Z,74.31
2022-10-31T14:45:41.164Z,74.53
2022-10-31T14:52:44.003Z,75.34
2022-10-31T14:59:49.877Z,77.41
2022-10-31T15:07:03.905Z,79.14
2022-10-31T15:14:22.005Z,79.94
2022-10-31T15:21:24.455Z,79.52
2022-10-31T15:28:26.390Z,81.16
2022-10-31T15:35:29.537Z,81.37
2022-10-31T15:42:36.807Z,81.48
2022-10-31T15:49:42.484Z,81.61
2022-10-31T15:56:44.117Z,81.85
2022-10-31T16:03:45.662Z,81.87
2022-10-31T16:10:47.216Z,82.75
2022-10-31T16:17:50.160Z,82.78
2022-10-31T16:24:55.470Z,82.85
2022-10-31T16:31:57.058Z,83.30
2022-10-31T16:38:59.087Z,83.67
2022-10-31T16:46:00.665Z,84.16
2022-10-31T16:53:17.692Z,84.65
2022-10-31T17:00:23.642Z,84.89
2022-10-31T17:07:25.213Z,85.21
2022-10-31T17:14:26.835Z,85.49
2022-10-31T17:21:28.780Z,87.42
2022-10-31T17:28:30.326Z,87.54
2022-10-31T17:35:31.921Z,87.87
2022-10-31T17:42:33.540Z,87.77
2022-10-31T17:49:35.100Z,88.19
2022-10-31T17:56:36.667Z,89.00
2022-10-31T18:03:38.516Z,89.73
2022-10-31T18:10:40.072Z,90.05
2022-10-31T18:17:42.359Z,91.11
2022-10-31T18:24:44.086Z,91.56
2022-10-31T18:31:48.420Z,92.51
2022-10-31T18:38:50.054Z,92.82
2022-10-31T18:45:56.705Z,93.56
2022-10-31T18:52:59.754Z,93.53
2022-10-31T19:00:01.604Z,93.28
2022-10-31T19:07:03.199Z,94.01
2022-10-31T19:14:05.539Z,94.13
2022-10-31T19:21:08.141Z,94.53
2022-10-31T19:28:09.755Z,94.57
2022-10-31T19:35:11.522Z,95.74
2022-10-31T19:42:13.201Z,95.69
2022-10-31T19:49:14.773Z,96.22
2022-10-31T19:56:17.740Z,96.45
2022-10-31T20:03:21.620Z,96.36
2022-10-31T20:10:25.142Z,96.98
2022-10-31T20:17:26.776Z,98.43
2022-10-31T20:24:31.814Z,98.16
2022-10-31T20:31:35.836Z,97.65
2022-10-31T20:38:38.974Z,97.50
2022-10-31T20:45:40.535Z,98.46
2022-10-31T20:52:42.092Z,99.71
2022-10-31T20:59:43.637Z,98.98
2022-10-31T21:06:49.233Z,100.00
2022-10-31T21:13:51.288Z,100.00
2022-10-31T21:20:52.870Z,99.47
2022-10-31T21:27:54.418Z,99.18
2022-10-31T21:34:55.996Z,99.13
2022-10-31T21:41:57.545Z,98.82
2022-10-31T21:48:59.198Z,99.19
2022-10-31T21:56:04.215Z,98.96
2022-10-31T22:03:05.791Z,99.00
2022-10-31T22:10:07.746Z,99.42
2022-10-31T22:17:09.470Z,99.77
2022-10-31T22:24:11.166Z,100.00
2022-10-31T22:31:13.842Z,100.00
2022-10-31T22:38:15.433Z,100.00
2022-10-31T22:45:17.154Z,100.00
2022-10-31T22:52:18.751Z,100.00
2022-10-31T22:59:20.607Z,100.00
2022-10-31T23:06:24.385Z,100.00
2022-10-31T23:13:44.506Z,100.00
2022-10-31T23:20:53.566Z,100.00
2022-10-31T23:27:55.125Z,100.00
2022-10-31T23:34:58.302Z,100.00
2022-10-31T23:41:59.970Z,100.00
2022-10-31T23:49:01.577Z,100.00
2022-10-31T23:56:03.202Z,100.00
